Time;durP1;ratioP1;P1;durP2;ratioP2;P2;SDS_P1;SDS_P2;PMS_P1;PMS_P2;Temp;Humidity;BMP_temperature;BMP_pressure;BME280_temperature;BME280_humidity;BME280_pressure;Samples;Min_cycle;Max_cycle;Signal;HPM_P1;HPM_P2
2021/06/11 00:00:55;;;;;;;6.88;6.11;;;;;;;18.61;74.69;100097.53;454182;116;926742;-71
2021/06/11 00:01:59;;;;;;;8.71;6.44;;;;;;;18.63;74.60;100098.09;455505;116;924034;-72
2021/06/11 00:03:04;;;;;;;6.95;6.01;;;;;;;18.66;74.53;100106.63;462385;114;924686;-71
2021/06/11 00:04:08;;;;;;;9.67;6.39;;;;;;;18.69;74.44;100103.30;462483;114;922700;-73
2021/06/11 00:05:12;;;;;;;7.23;6.64;;;;;;;18.71;74.33;100098.33;451436;116;930437;-72
2021/06/11 00:06:16;;;;;;;8.46;6.18;;;;;;;18.72;74.28;100099.99;462445;114;930651;-72
2021/06/11 00:07:19;;;;;;;6.95;6.20;;;;;;;18.75;74.22;100104.95;462717;114;922409;-73
2021/06/11 00:08:23;;;;;;;15.38;6.42;;;;;;;18.77;74.19;100104.67;462486;114;922806;-69
2021/06/11 00:09:27;;;;;;;7.49;6.19;;;;;;;18.78;74.22;100105.50;462783;114;922391;-72
2021/06/11 00:10:31;;;;;;;6.34;5.74;;;;;;;18.79;74.17;100098.88;462788;114;922528;-72
2021/06/11 00:11:35;;;;;;;7.90;6.04;;;;;;;18.81;74.17;100093.88;455773;116;922459;-72
2021/06/11 00:12:39;;;;;;;7.34;6.65;;;;;;;18.81;74.13;100097.47;462527;113;922901;-72
2021/06/11 00:13:43;;;;;;;9.60;6.74;;;;;;;18.82;74.03;100096.38;461933;113;923005;-72
2021/06/11 00:14:47;;;;;;;11.41;7.73;;;;;;;18.82;74.00;100096.38;450252;114;930467;-70
2021/06/11 00:15:55;;;;;;;9.10;7.94;;;;;;;18.82;73.95;100093.61;462282;114;922531;-72
2021/06/11 00:17:03;;;;;;;9.87;8.86;;;;;;;18.82;73.91;100095.54;453239;115;931953;-73
2021/06/11 00:18:08;;;;;;;9.11;8.23;;;;;;;18.81;73.81;100102.17;466962;112;924009;-71
2021/06/11 00:19:12;;;;;;;9.58;8.45;;;;;;;18.79;73.76;100096.12;471303;111;924465;-71
2021/06/11 00:20:37;;;;;;;9.81;7.86;;;;;;;18.78;73.70;100099.98;471984;112;926603;-66
2021/06/11 00:21:41;;;;;;;8.65;7.98;;;;;;;18.75;73.71;100095.83;472336;112;923474;-66
2021/06/11 00:22:46;;;;;;;9.80;8.38;;;;;;;18.74;73.76;100102.48;472130;112;925490;-65
2021/06/11 00:23:49;;;;;;;8.99;8.15;;;;;;;18.72;73.75;100102.75;471641;110;925590;-68
2021/06/11 00:24:53;;;;;;;9.48;8.27;;;;;;;18.71;73.77;100097.50;472112;112;924019;-65
2021/06/11 00:25:57;;;;;;;9.47;8.42;;;;;;;18.71;73.80;100092.81;472017;112;928438;-66
2021/06/11 00:27:01;;;;;;;8.87;7.94;;;;;;;18.72;73.82;100090.88;471912;112;922524;-67
2021/06/11 00:28:06;;;;;;;9.05;7.74;;;;;;;18.71;73.77;100098.33;463876;113;924096;-64
2021/06/11 00:29:10;;;;;;;9.90;8.66;;;;;;;18.72;73.78;100097.23;465178;112;924210;-66
2021/06/11 00:30:18;;;;;;;9.41;8.51;;;;;;;18.72;73.83;100091.70;471992;112;926475;-68
2021/06/11 00:31:22;;;;;;;10.81;8.64;;;;;;;18.71;73.82;100101.09;471777;112;931878;-67
2021/06/11 00:32:26;;;;;;;9.98;8.04;;;;;;;18.71;73.83;100100.27;472216;112;923888;-69
2021/06/11 00:33:30;;;;;;;9.17;8.30;;;;;;;18.70;73.87;100102.20;471236;110;926935;-69
2021/06/11 00:34:34;;;;;;;8.90;8.02;;;;;;;18.69;73.88;100099.70;471332;112;933850;-69
2021/06/11 00:35:39;;;;;;;8.48;7.72;;;;;;;18.68;73.90;100098.08;471543;111;925677;-67
2021/06/11 00:36:44;;;;;;;9.23;8.44;;;;;;;18.68;73.93;100100.84;471451;112;924086;-69
2021/06/11 00:37:49;;;;;;;9.02;8.21;;;;;;;18.66;73.95;100101.11;471467;112;924065;-66
2021/06/11 00:38:54;;;;;;;8.78;8.16;;;;;;;18.65;73.91;100095.86;471541;112;926012;-68
2021/06/11 00:39:58;;;;;;;8.95;7.79;;;;;;;18.66;73.96;100105.80;471449;111;922907;-66
2021/06/11 00:41:03;;;;;;;9.57;8.01;;;;;;;18.66;73.96;100109.39;471617;112;924537;-66
2021/06/11 00:42:07;;;;;;;7.79;7.10;;;;;;;18.66;73.97;100106.63;471645;112;926535;-66
2021/06/11 00:43:13;;;;;;;12.48;7.91;;;;;;;18.68;73.98;100100.84;471472;111;924120;-67
2021/06/11 00:44:17;;;;;;;8.44;7.70;;;;;;;18.70;74.00;100101.37;471142;112;931804;-66
2021/06/11 00:45:21;;;;;;;7.03;6.45;;;;;;;18.71;73.93;100106.62;471651;112;928094;-67
2021/06/11 00:46:25;;;;;;;7.86;7.16;;;;;;;18.71;73.86;100100.27;471422;111;926094;-67
2021/06/11 00:47:29;;;;;;;7.69;6.99;;;;;;;18.73;73.84;100103.59;471724;112;922598;-69
2021/06/11 00:48:33;;;;;;;7.11;6.45;;;;;;;18.74;73.83;100102.48;471471;112;925688;-68
2021/06/11 00:49:38;;;;;;;8.00;7.30;;;;;;;18.74;73.85;100100.52;471822;112;922408;-69
2021/06/11 00:50:42;;;;;;;7.74;6.99;;;;;;;18.75;73.88;100102.19;471828;112;930443;-63
2021/06/11 00:51:46;;;;;;;9.03;7.19;;;;;;;18.77;73.86;100101.08;471431;112;924093;-64
2021/06/11 00:52:52;;;;;;;6.91;6.31;;;;;;;18.75;73.82;100104.95;471813;112;923367;-64
2021/06/11 00:53:56;;;;;;;12.22;6.54;;;;;;;18.74;73.85;100100.52;471848;112;922609;-64
2021/06/11 00:55:01;;;;;;;7.24;6.41;;;;;;;18.72;73.87;100105.52;471757;112;923365;-64
2021/06/11 00:56:05;;;;;;;6.48;5.96;;;;;;;18.72;73.92;100104.69;471733;111;930432;-65
2021/06/11 00:57:08;;;;;;;5.81;5.26;;;;;;;18.70;73.93;100110.48;471822;111;922470;-64
2021/06/11 00:58:13;;;;;;;5.53;5.08;;;;;;;18.70;74.01;100095.84;471893;112;922582;-65
2021/06/11 00:59:18;;;;;;;6.21;5.71;;;;;;;18.70;74.01;100099.44;471510;112;922619;-65
2021/06/11 01:00:22;;;;;;;6.18;5.58;;;;;;;18.72;74.01;100102.75;471831;112;922887;-65
2021/06/11 01:01:26;;;;;;;6.61;6.04;;;;;;;18.73;74.01;100107.18;471444;111;923027;-66
2021/06/11 01:02:30;;;;;;;6.34;5.53;;;;;;;18.75;73.92;100110.47;471613;110;923061;-64
2021/06/11 01:03:33;;;;;;;5.67;5.05;;;;;;;18.74;73.93;100108.01;471017;112;930437;-65
2021/06/11 01:04:37;;;;;;;7.16;5.14;;;;;;;18.73;73.91;100109.94;471448;112;922493;-66
2021/06/11 01:05:42;;;;;;;9.78;5.49;;;;;;;18.70;73.88;100109.66;471095;110;922911;-65
2021/06/11 01:06:48;;;;;;;6.26;5.61;;;;;;;18.68;73.90;100101.67;471144;110;933205;-64
2021/06/11 01:07:53;;;;;;;5.83;5.23;;;;;;;18.67;73.98;100111.05;470544;112;924023;-65
2021/06/11 01:08:59;;;;;;;8.53;5.39;;;;;;;18.67;74.02;100111.05;471247;112;924003;-63
2021/06/11 01:10:04;;;;;;;6.67;5.54;;;;;;;18.66;74.03;100106.63;471318;111;926195;-65
2021/06/11 01:11:11;;;;;;;6.13;5.54;;;;;;;18.66;74.03;100111.33;471017;112;925801;-66
2021/06/11 01:12:15;;;;;;;6.34;5.76;;;;;;;18.65;74.05;100115.19;470266;112;926220;-64
2021/06/11 01:13:27;;;;;;;6.17;5.67;;;;;;;18.62;74.12;100113.83;471116;112;924464;-63
2021/06/11 01:14:42;;;;;;;6.13;5.53;;;;;;;18.61;74.14;100116.86;450673;114;923956;-64
2021/06/11 01:15:50;;;;;;;6.35;5.89;;;;;;;18.59;74.26;100110.78;456831;112;931945;-64
2021/06/11 01:16:54;;;;;;;8.10;6.01;;;;;;;18.57;74.32;100113.84;471439;112;923981;-65
2021/06/11 01:17:58;;;;;;;6.63;6.04;;;;;;;18.57;74.29;100110.25;471462;112;924088;-64
2021/06/11 01:19:03;;;;;;;7.49;6.16;;;;;;;18.57;74.37;100113.02;471786;112;923041;-66
2021/06/11 01:20:11;;;;;;;6.74;6.24;;;;;;;18.57;74.42;100113.02;471569;112;922806;-65
2021/06/11 01:21:18;;;;;;;8.15;6.29;;;;;;;18.55;74.38;100112.45;468382;112;922711;-64
2021/06/11 01:22:25;;;;;;;7.29;6.17;;;;;;;18.55;74.43;100110.52;465553;112;924090;-65
2021/06/11 01:23:51;;;;;;;7.19;6.36;;;;;;;18.53;74.51;100107.16;470649;112;924082;-65
2021/06/11 01:25:06;;;;;;;13.03;7.04;;;;;;;18.53;74.61;100106.34;462598;114;924449;-65
2021/06/11 01:26:26;;;;;;;7.78;7.07;;;;;;;18.52;74.64;100108.30;463195;114;924006;-65
2021/06/11 01:27:32;;;;;;;7.48;6.45;;;;;;;18.51;74.74;100103.88;462338;114;924751;-65
2021/06/11 01:28:37;;;;;;;9.06;6.66;;;;;;;18.51;74.87;100109.40;463017;114;924116;-64
2021/06/11 01:29:46;;;;;;;7.26;6.54;;;;;;;18.52;74.87;100110.23;463179;114;924772;-63
2021/06/11 01:30:51;;;;;;;8.36;6.54;;;;;;;18.51;74.98;100101.12;463319;114;924018;-65
2021/06/11 01:32:01;;;;;;;6.88;6.23;;;;;;;18.49;74.98;100103.31;463055;112;924056;-64
2021/06/11 01:33:05;;;;;;;7.49;6.73;;;;;;;18.49;75.03;100096.97;463342;114;924046;-71
2021/06/11 01:34:15;;;;;;;6.71;6.19;;;;;;;18.49;75.07;100100.55;462531;113;924048;-73
2021/06/11 01:35:24;;;;;;;7.57;6.98;;;;;;;18.49;75.08;100106.08;462482;114;932261;-70
2021/06/11 01:36:35;;;;;;;12.19;7.26;;;;;;;18.49;75.09;100099.72;453646;116;924015;-72
2021/06/11 01:37:41;;;;;;;7.53;6.84;;;;;;;18.50;75.11;100110.50;454465;114;922653;-72
2021/06/11 01:38:47;;;;;;;7.95;7.21;;;;;;;18.49;75.11;100108.01;462494;114;932021;-71
2021/06/11 01:39:57;;;;;;;8.20;7.41;;;;;;;18.48;75.16;100104.42;462812;114;922480;-71
2021/06/11 01:41:01;;;;;;;8.09;7.32;;;;;;;18.49;75.27;100106.08;462443;114;925839;-71
2021/06/11 01:42:06;;;;;;;8.56;7.81;;;;;;;18.51;75.32;100108.57;462568;114;924432;-73
2021/06/11 01:43:11;;;;;;;8.87;8.02;;;;;;;18.53;75.23;100115.45;462256;113;924103;-71
2021/06/11 01:44:16;;;;;;;9.39;7.22;;;;;;;18.54;75.10;100114.38;462662;114;922860;-72
2021/06/11 01:45:20;;;;;;;10.69;9.07;;;;;;;18.54;75.05;100114.38;462900;112;922360;-71
2021/06/11 01:46:27;;;;;;;11.07;10.07;;;;;;;18.54;75.07;100111.63;462908;114;922916;-72
2021/06/11 01:47:32;;;;;;;13.23;10.49;;;;;;;18.55;75.01;100117.97;462945;114;922734;-71
2021/06/11 01:48:38;;;;;;;11.60;10.23;;;;;;;18.55;75.01;100120.73;462250;114;925625;-71
2021/06/11 01:49:45;;;;;;;12.86;11.09;;;;;;;18.56;75.00;100114.11;462266;114;924547;-72
2021/06/11 01:50:57;;;;;;;12.29;11.07;;;;;;;18.66;75.04;100120.44;473768;110;948631;-72
2021/06/11 01:52:04;;;;;;;12.77;11.57;;;;;;;18.56;75.01;100111.35;463897;113;922478;-71
2021/06/11 01:53:10;;;;;;;12.98;11.71;;;;;;;18.55;74.94;100116.05;464089;113;922415;-72
2021/06/11 01:54:15;;;;;;;12.25;11.01;;;;;;;18.56;74.97;100114.94;464920;114;922346;-71
2021/06/11 01:55:20;;;;;;;12.56;11.08;;;;;;;18.57;74.97;100113.84;465120;113;923039;-72
2021/06/11 01:56:25;;;;;;;13.54;10.82;;;;;;;18.59;75.04;100119.06;464781;113;922550;-72
2021/06/11 01:57:29;;;;;;;12.74;11.42;;;;;;;18.59;74.96;100122.66;464933;114;922894;-72
2021/06/11 01:58:35;;;;;;;12.52;11.36;;;;;;;18.60;74.86;100127.08;464232;113;924003;-74
2021/06/11 01:59:39;;;;;;;11.64;10.59;;;;;;;18.61;74.85;100127.91;464411;113;924098;-71
2021/06/11 02:00:45;;;;;;;12.53;11.43;;;;;;;18.60;74.82;100123.48;464773;112;926546;-73
2021/06/11 02:01:50;;;;;;;13.04;11.90;;;;;;;18.60;74.75;100124.31;464552;113;922540;-72
2021/06/11 02:02:54;;;;;;;12.43;11.08;;;;;;;18.59;74.74;100117.13;464854;114;924080;-73
2021/06/11 02:03:59;;;;;;;12.68;11.21;;;;;;;18.59;74.76;100130.94;464910;112;923357;-71
2021/06/11 02:05:08;;;;;;;11.97;10.86;;;;;;;18.58;74.74;100128.48;464419;113;923873;-70
2021/06/11 02:06:16;;;;;;;12.14;10.62;;;;;;;18.56;74.74;100134.27;464807;113;925317;-70
2021/06/11 02:07:20;;;;;;;11.65;10.65;;;;;;;18.53;74.75;100126.49;463500;113;923883;-71
2021/06/11 02:08:24;;;;;;;12.25;10.81;;;;;;;18.52;74.87;100126.80;464619;113;924951;-71
2021/06/11 02:09:28;;;;;;;11.39;10.31;;;;;;;18.50;74.85;100126.23;464564;113;925999;-70
2021/06/11 02:10:33;;;;;;;10.69;9.69;;;;;;;18.47;74.96;100127.60;464292;113;924167;-72
2021/06/11 02:11:41;;;;;;;9.39;8.61;;;;;;;18.45;75.06;100132.59;463995;114;923999;-72
2021/06/11 02:12:44;;;;;;;12.20;9.04;;;;;;;18.44;75.07;100132.86;464466;114;931886;-72
2021/06/11 02:13:51;;;;;;;12.14;9.61;;;;;;;18.41;75.12;100131.50;464718;114;924851;-71
2021/06/11 02:14:55;;;;;;;10.41;9.09;;;;;;;18.40;75.19;100140.05;464668;114;924876;-71
2021/06/11 02:16:03;;;;;;;9.44;8.41;;;;;;;18.38;75.20;100136.73;464473;114;922404;-72
2021/06/11 02:17:09;;;;;;;9.83;9.06;;;;;;;18.37;75.30;100135.06;464587;114;931942;-70
2021/06/11 02:18:15;;;;;;;9.69;8.96;;;;;;;18.35;75.34;100121.56;464305;113;924935;-71
2021/06/11 02:19:21;;;;;;;10.49;9.13;;;;;;;18.36;75.36;100131.48;464531;114;925519;-72
2021/06/11 02:20:27;;;;;;;10.00;9.10;;;;;;;18.36;75.36;100125.95;454273;116;924745;-69
2021/06/11 02:21:31;;;;;;;11.66;9.55;;;;;;;18.37;75.30;100122.09;454281;114;925482;-70
2021/06/11 02:22:40;;;;;;;10.70;9.93;;;;;;;18.37;75.37;100122.09;464705;114;932305;-72
2021/06/11 02:23:49;;;;;;;10.96;10.09;;;;;;;18.39;75.32;100124.59;464598;114;922729;-70
2021/06/11 02:25:06;;;;;;;12.09;10.98;;;;;;;18.40;75.29;100129.84;446451;118;923666;-70
2021/06/11 02:26:15;;;;;;;13.83;12.72;;;;;;;18.41;75.22;100122.39;450493;114;925144;-70
2021/06/11 02:27:20;;;;;;;12.44;11.43;;;;;;;18.41;75.33;100125.16;463879;113;924022;-71
2021/06/11 02:28:24;;;;;;;13.02;11.95;;;;;;;18.41;75.26;100123.22;464930;113;924592;-70
2021/06/11 02:29:29;;;;;;;13.89;12.79;;;;;;;18.42;75.24;100135.06;464327;113;923329;-72
2021/06/11 02:30:33;;;;;;;13.23;12.27;;;;;;;18.42;75.20;100126.78;464645;114;925786;-71
2021/06/11 02:31:39;;;;;;;13.09;11.42;;;;;;;18.44;75.16;100127.34;464947;114;927270;-71
2021/06/11 02:32:44;;;;;;;11.84;10.81;;;;;;;18.44;75.11;100124.58;464741;114;925776;-72
2021/06/11 02:33:48;;;;;;;12.98;11.93;;;;;;;18.45;75.08;100129.83;464418;114;923527;-71
2021/06/11 02:34:52;;;;;;;12.22;11.16;;;;;;;18.46;75.07;100128.73;464928;114;930266;-72
2021/06/11 02:35:56;;;;;;;11.24;10.23;;;;;;;18.49;75.11;100125.41;463794;113;923081;-71
2021/06/11 02:37:00;;;;;;;11.72;10.93;;;;;;;18.51;75.05;100123.20;464278;113;922618;-72
2021/06/11 02:38:04;;;;;;;11.18;10.28;;;;;;;18.54;75.01;100128.19;464231;113;922480;-70
2021/06/11 02:39:08;;;;;;;10.58;9.68;;;;;;;18.58;74.88;100125.72;465012;114;922533;-73
2021/06/11 02:40:13;;;;;;;10.58;9.62;;;;;;;18.61;74.71;100130.67;464800;114;930908;-71
2021/06/11 02:41:23;;;;;;;11.91;11.01;;;;;;;18.62;74.63;100132.33;464691;114;922986;-72
2021/06/11 02:42:28;;;;;;;11.04;9.93;;;;;;;18.65;74.57;100127.06;464804;114;930167;-71
2021/06/11 02:43:37;;;;;;;11.33;10.23;;;;;;;18.69;74.49;100124.56;464475;113;923066;-71
2021/06/11 02:44:44;;;;;;;11.01;9.92;;;;;;;18.72;74.46;100126.78;464618;114;922523;-71
2021/06/11 02:45:57;;;;;;;11.12;9.73;;;;;;;18.77;74.35;100123.17;464960;112;923149;-71
2021/06/11 02:47:08;;;;;;;11.51;10.17;;;;;;;18.79;74.27;100127.33;463810;112;922523;-71
2021/06/11 02:48:18;;;;;;;10.43;9.63;;;;;;;18.82;74.21;100128.69;464556;113;922952;-72
2021/06/11 02:49:25;;;;;;;10.67;9.78;;;;;;;18.85;74.06;100122.62;464764;114;922574;-72
2021/06/11 02:50:33;;;;;;;10.34;9.46;;;;;;;18.87;73.96;100121.21;464327;114;923015;-72
2021/06/11 02:51:46;;;;;;;10.38;9.61;;;;;;;18.87;73.87;100123.14;460485;115;924018;-70
2021/06/11 02:52:53;;;;;;;14.96;9.42;;;;;;;18.88;73.90;100125.63;457745;115;922641;-71
2021/06/11 02:53:59;;;;;;;11.30;10.17;;;;;;;18.88;73.91;100124.80;458130;115;924490;-70
2021/06/11 02:55:06;;;;;;;11.15;10.09;;;;;;;18.87;73.92;100120.38;458026;115;924096;-71
2021/06/11 02:56:26;;;;;;;11.00;10.06;;;;;;;18.86;73.91;100127.84;458052;115;922532;-72
2021/06/11 02:57:36;;;;;;;12.74;10.74;;;;;;;18.87;73.82;100129.50;458838;115;922596;-71
2021/06/11 02:58:52;;;;;;;11.47;10.57;;;;;;;18.88;73.82;100124.80;459703;115;925669;-70
2021/06/11 03:00:00;;;;;;;10.70;9.80;;;;;;;18.89;73.80;100119.01;459571;115;924877;-70
2021/06/11 03:01:05;;;;;;;11.08;10.13;;;;;;;18.89;73.79;100119.01;456844;114;923993;-72
2021/06/11 03:02:12;;;;;;;11.16;10.13;;;;;;;18.89;73.79;100118.18;458500;115;925866;-72
2021/06/11 03:03:19;;;;;;;11.89;10.73;;;;;;;18.90;73.79;100128.13;457896;114;924030;-71
2021/06/11 03:04:25;;;;;;;15.91;11.21;;;;;;;18.91;73.77;100124.27;459979;114;924046;-72
2021/06/11 03:05:30;;;;;;;12.49;11.41;;;;;;;18.91;73.85;100127.02;460356;114;922487;-71
2021/06/11 03:06:36;;;;;;;13.07;12.05;;;;;;;18.91;73.92;100125.06;458354;115;926114;-72
2021/06/11 03:07:42;;;;;;;13.86;12.38;;;;;;;18.92;73.91;100126.72;451417;117;924556;-73
2021/06/11 03:08:50;;;;;;;13.81;12.09;;;;;;;18.94;73.83;100127.28;453454;115;924548;-73
2021/06/11 03:09:57;;;;;;;14.62;11.99;;;;;;;18.96;73.72;100125.08;460843;115;925225;-71
2021/06/11 03:11:07;;;;;;;13.82;12.70;;;;;;;18.97;73.74;100123.94;457905;115;922670;-73
2021/06/11 03:12:13;;;;;;;13.85;12.22;;;;;;;19.00;73.75;100133.62;458440;115;924439;-69
2021/06/11 03:13:19;;;;;;;13.99;11.50;;;;;;;18.99;73.66;100131.95;457636;115;923830;-71
2021/06/11 03:14:25;;;;;;;13.14;12.03;;;;;;;18.99;73.67;100132.78;457758;115;923046;-71
2021/06/11 03:15:31;;;;;;;12.28;11.14;;;;;;;18.99;73.61;100129.20;457929;115;924015;-71
2021/06/11 03:16:39;;;;;;;12.68;11.52;;;;;;;18.99;73.56;100137.48;459698;115;924005;-70
2021/06/11 03:17:50;;;;;;;12.62;11.42;;;;;;;18.97;73.47;100128.63;458859;115;924382;-70
2021/06/11 03:18:56;;;;;;;;;;;;;;;18.97;73.47;100129.47;463595;115;921995;-72
2021/06/11 03:20:03;;;;;;;12.50;11.40;;;;;;;18.96;73.48;100129.77;458270;115;923828;-69
2021/06/11 03:21:19;;;;;;;12.84;11.54;;;;;;;18.94;73.43;100137.50;459320;115;924053;-71
2021/06/11 03:22:26;;;;;;;13.04;11.98;;;;;;;18.92;73.45;100128.66;458882;115;922634;-71
2021/06/11 03:23:33;;;;;;;11.83;10.76;;;;;;;18.90;73.44;100122.60;459982;115;922515;-73
2021/06/11 03:24:53;;;;;;;11.78;10.72;;;;;;;18.89;73.40;100131.99;459483;115;922442;-72
2021/06/11 03:26:00;;;;;;;13.74;12.46;;;;;;;18.86;73.48;100127.84;425581;122;922770;-73
2021/06/11 03:27:16;;;;;;;13.76;12.33;;;;;;;18.85;73.47;100128.14;441897;115;922640;-71
2021/06/11 03:28:23;;;;;;;13.34;11.78;;;;;;;18.83;73.47;100120.12;459063;115;922561;-69
2021/06/11 03:29:30;;;;;;;12.47;11.28;;;;;;;18.81;73.50;100135.31;458023;115;923064;-71
2021/06/11 03:30:37;;;;;;;13.04;11.81;;;;;;;18.79;73.48;100129.26;458301;115;922886;-72
2021/06/11 03:31:44;;;;;;;13.10;11.68;;;;;;;18.76;73.58;100133.39;458440;115;922534;-72
2021/06/11 03:33:01;;;;;;;12.89;11.84;;;;;;;18.74;73.71;100133.66;460057;115;922773;-72
2021/06/11 03:34:08;;;;;;;13.31;12.19;;;;;;;18.74;73.74;100133.66;459787;115;922633;-73
2021/06/11 03:35:19;;;;;;;13.37;12.26;;;;;;;18.73;73.81;100132.03;458113;115;923959;-71
2021/06/11 03:36:33;;;;;;;12.79;11.50;;;;;;;18.84;73.88;100130.08;482882;108;948629;-69
2021/06/11 03:37:37;;;;;;;15.54;12.37;;;;;;;18.73;73.93;100136.73;472174;111;925340;-69
2021/06/11 03:38:44;;;;;;;14.89;12.44;;;;;;;18.74;73.96;100138.39;465540;113;922949;-71
2021/06/11 03:39:58;;;;;;;12.90;11.79;;;;;;;18.75;74.02;100134.50;465930;113;922447;-71
2021/06/11 03:41:02;;;;;;;13.80;12.54;;;;;;;18.75;74.05;100138.09;464732;113;922577;-72
2021/06/11 03:42:08;;;;;;;14.22;12.89;;;;;;;18.77;74.07;100139.75;466374;112;923052;-69
2021/06/11 03:43:12;;;;;;;14.39;13.08;;;;;;;18.78;74.12;100141.41;465835;112;924114;-71
2021/06/11 03:44:17;;;;;;;13.88;12.07;;;;;;;18.78;74.11;100139.48;464972;113;924142;-69
2021/06/11 03:45:24;;;;;;;15.28;12.83;;;;;;;18.81;74.18;100143.59;465818;113;927314;-71
2021/06/11 03:46:31;;;;;;;13.89;12.62;;;;;;;18.81;74.18;100138.91;466053;113;922962;-69
2021/06/11 03:47:38;;;;;;;14.34;13.14;;;;;;;18.83;74.20;100149.69;454637;114;924676;-71
2021/06/11 03:48:49;;;;;;;14.87;13.45;;;;;;;18.83;74.21;100142.22;457155;113;922588;-70
2021/06/11 03:49:57;;;;;;;18.18;14.13;;;;;;;18.84;74.23;100140.30;465789;113;922507;-70
2021/06/11 03:51:02;;;;;;;17.06;13.88;;;;;;;18.85;74.18;100140.02;464457;113;931970;-72
2021/06/11 03:52:07;;;;;;;15.12;13.54;;;;;;;18.86;74.19;100138.89;455049;115;924157;-69
2021/06/11 03:53:13;;;;;;;16.16;14.51;;;;;;;18.87;74.19;100145.24;455148;113;924204;-70
2021/06/11 03:54:19;;;;;;;18.85;14.34;;;;;;;18.87;74.06;100140.55;465226;113;924087;-69
2021/06/11 03:55:26;;;;;;;30.62;15.59;;;;;;;18.89;74.02;100138.34;464602;113;924473;-67
2021/06/11 03:56:34;;;;;;;28.51;16.32;;;;;;;18.91;74.00;100138.08;465402;112;925754;-71
2021/06/11 03:57:41;;;;;;;17.22;15.29;;;;;;;18.94;74.05;100149.37;464156;113;923901;-71
2021/06/11 03:58:48;;;;;;;16.14;14.72;;;;;;;18.97;74.01;100142.45;465886;113;923736;-69
2021/06/11 03:59:53;;;;;;;14.41;13.21;;;;;;;18.99;73.93;100143.01;465534;113;924029;-70
2021/06/11 04:01:00;;;;;;;15.06;13.54;;;;;;;18.99;73.77;100140.25;465286;113;925543;-70
2021/06/11 04:02:05;;;;;;;15.48;14.11;;;;;;;19.02;73.64;100142.47;465572;113;923843;-72
2021/06/11 04:03:10;;;;;;;14.18;12.96;;;;;;;19.03;73.53;100144.09;465033;113;925892;-71
2021/06/11 04:04:15;;;;;;;18.10;14.22;;;;;;;19.05;73.49;100130.84;465072;113;924413;-72
2021/06/11 04:05:21;;;;;;;15.14;13.84;;;;;;;19.06;73.49;100136.09;464513;113;924025;-70
2021/06/11 04:06:39;;;;;;;16.04;14.64;;;;;;;19.08;73.42;100135.78;465737;113;924530;-70
2021/06/11 04:07:50;;;;;;;18.78;16.44;;;;;;;19.10;73.42;100139.11;465488;113;924053;-70
2021/06/11 04:08:58;;;;;;;19.78;16.42;;;;;;;19.11;73.45;100138.83;465278;113;924407;-70
2021/06/11 04:10:05;;;;;;;19.33;17.57;;;;;;;19.14;73.35;100142.95;462169;113;924041;-68
2021/06/11 04:11:18;;;;;;;25.36;17.33;;;;;;;19.15;73.25;100145.44;464736;113;922596;-71
2021/06/11 04:12:28;;;;;;;21.99;16.99;;;;;;;19.18;73.22;100140.47;464991;113;924050;-71
2021/06/11 04:13:39;;;;;;;21.18;17.64;;;;;;;19.18;73.14;100141.30;465322;113;923927;-69
2021/06/11 04:14:47;;;;;;;21.44;19.26;;;;;;;19.21;73.05;100135.19;446262;117;923971;-68
2021/06/11 04:15:53;;;;;;;26.18;18.89;;;;;;;19.22;72.96;100133.27;446585;115;922506;-72
2021/06/11 04:16:58;;;;;;;20.14;17.37;;;;;;;19.23;72.88;100141.28;465870;113;925613;-71
2021/06/11 04:18:06;;;;;;;18.12;15.39;;;;;;;19.25;72.80;100143.73;464870;113;922835;-69
2021/06/11 04:19:12;;;;;;;21.58;15.56;;;;;;;19.25;72.71;100141.80;465886;113;931021;-69
2021/06/11 04:20:22;;;;;;;33.71;15.80;;;;;;;19.27;72.70;100134.06;428187;118;923124;-69
2021/06/11 04:21:30;;;;;;;42.03;14.98;;;;;;;19.30;72.63;100143.72;428956;123;923114;-70
2021/06/11 04:22:35;;;;;;;23.40;15.28;;;;;;;19.32;72.59;100139.57;435616;120;922493;-69
2021/06/11 04:23:41;;;;;;;19.29;13.51;;;;;;;19.34;72.64;100140.12;435780;120;922512;-71
2021/06/11 04:24:48;;;;;;;13.57;12.18;;;;;;;19.38;72.60;100145.91;434456;120;922915;-73
2021/06/11 04:25:54;;;;;;;18.17;11.55;;;;;;;19.41;72.51;100139.80;434958;120;923498;-71
2021/06/11 04:26:59;;;;;;;16.08;11.31;;;;;;;19.44;72.32;100150.30;422791;123;922796;-70
2021/06/11 04:28:05;;;;;;;25.29;11.85;;;;;;;19.47;72.31;100147.82;423202;122;922463;-70
2021/06/11 04:29:11;;;;;;;10.54;9.36;;;;;;;19.50;72.18;100152.80;437635;118;922553;-70
2021/06/11 04:30:15;;;;;;;10.46;7.69;;;;;;;19.52;72.00;100153.33;437367;118;922653;-72
2021/06/11 04:31:19;;;;;;;8.56;7.72;;;;;;;19.53;71.90;100149.45;438128;120;922650;-69
2021/06/11 04:32:23;;;;;;;21.22;8.01;;;;;;;19.53;71.72;100154.98;437731;120;922556;-68
2021/06/11 04:33:29;;;;;;;20.92;7.54;;;;;;;19.55;71.58;100165.77;438074;118;922580;-71
2021/06/11 04:34:33;;;;;;;17.09;7.14;;;;;;;19.54;71.49;100153.88;430458;120;924017;-71
2021/06/11 04:35:41;;;;;;;21.30;6.63;;;;;;;19.54;71.47;100155.81;429738;122;925665;-71
2021/06/11 04:36:47;;;;;;;9.41;6.74;;;;;;;19.53;71.47;100160.52;437820;118;926962;-71
2021/06/11 04:37:52;;;;;;;8.04;6.52;;;;;;;19.55;71.40;100157.47;436987;118;924089;-70
2021/06/11 04:39:07;;;;;;;15.91;7.20;;;;;;;19.55;71.38;100169.36;437691;119;927198;-68
2021/06/11 04:40:15;;;;;;;9.76;6.56;;;;;;;19.55;71.42;100163.83;437695;118;924472;-71
2021/06/11 04:42:02;;;;;;;8.02;7.26;;;;;;;19.56;71.39;100164.66;428861;122;925856;-69
2021/06/11 04:43:42;;;;;;;9.74;7.30;;;;;;;19.58;71.27;100170.72;436192;118;926585;-71
2021/06/11 04:44:46;;;;;;;8.61;7.71;;;;;;;19.58;71.15;100166.02;435125;118;923540;-68
2021/06/11 04:45:51;;;;;;;11.59;7.79;;;;;;;19.60;71.11;100167.67;435284;120;922611;-70
2021/06/11 04:46:55;;;;;;;9.46;8.17;;;;;;;19.61;71.04;100172.10;436141;120;932604;-69
2021/06/11 04:48:00;;;;;;;10.32;9.28;;;;;;;19.60;71.04;100165.73;431991;120;923114;-68
2021/06/11 04:49:05;;;;;;;10.65;9.71;;;;;;;19.60;71.00;100162.97;436919;120;924166;-70
2021/06/11 04:50:10;;;;;;;13.49;9.76;;;;;;;19.60;70.89;100170.44;418618;125;923356;-70
2021/06/11 04:51:15;;;;;;;17.01;12.41;;;;;;;19.60;70.85;100175.97;438725;118;926648;-71
2021/06/11 04:52:19;;;;;;;14.12;12.29;;;;;;;19.59;70.93;100169.61;445603;118;923954;-69
2021/06/11 04:53:23;;;;;;;23.70;12.48;;;;;;;19.61;71.06;100174.87;445045;118;926043;-74
2021/06/11 04:54:27;;;;;;;16.11;11.84;;;;;;;19.62;71.08;100171.00;445396;118;924230;-68
2021/06/11 04:55:31;;;;;;;17.51;13.85;;;;;;;19.62;71.09;100173.77;443506;118;923536;-71
2021/06/11 04:56:34;;;;;;;13.83;12.26;;;;;;;19.63;71.03;100178.19;437773;121;926097;-70
2021/06/11 04:57:38;;;;;;;13.78;12.38;;;;;;;19.62;70.97;100180.13;438476;118;925076;-69
2021/06/11 04:58:43;;;;;;;13.94;11.47;;;;;;;19.62;70.90;100180.13;446198;118;925952;-70
2021/06/11 04:59:47;;;;;;;12.47;11.14;;;;;;;19.63;70.85;100186.48;445928;118;927059;-70
2021/06/11 05:01:09;;;;;;;12.11;10.84;;;;;;;19.62;70.81;100182.06;445003;118;925178;-72
2021/06/11 05:02:27;;;;;;;17.36;10.46;;;;;;;19.61;70.90;100180.40;445822;118;924516;-71
2021/06/11 05:03:46;;;;;;;17.44;11.20;;;;;;;19.59;70.96;100183.44;431333;122;923897;-67
2021/06/11 05:04:50;;;;;;;18.19;9.52;;;;;;;19.60;71.01;100187.04;435853;118;922880;-67